TAP1439 GMMN-LPPT
Flight info
| Callsign | TAP1439 |
|---|---|
| Flight time | 1h 9m |
| Altitude | 36000 |
| Route | LAKAM UR722 AMSEL DCT VATZI |
| Aircraft | A320/M-SDE3FGHIRWY/LB1 |
Departure
| Time | 2026-05-04 19:57 |
|---|---|
| Airport | Mohammed V International Airport (GMMN) |
Arrival
| Time | 2026-05-04 21:06 |
|---|---|
| Airport | Lisbon Humberto Delgado Airport (LPPT) |
| Time | Latitude | Longitude | Altitude | Speed | Heading |
|---|---|---|---|---|---|
| 2026-05-04 19:13 | 33.37108 | -7.58162 | 653 ft | 0 kts | 75° |
| 2026-05-04 19:45 | 33.37105 | -7.58172 | 655 ft | 3 kts | 76° |
| 2026-05-04 19:45 | 33.37101 | -7.58195 | 654 ft | 3 kts | 83° |
| 2026-05-04 19:45 | 33.37100 | -7.58219 | 653 ft | 3 kts | 96° |
| 2026-05-04 19:46 | 33.37104 | -7.58242 | 654 ft | 2 kts | 116° |
| 2026-05-04 19:46 | 33.37107 | -7.58249 | 653 ft | 0 kts | 121° |
| 2026-05-04 19:48 | 33.37103 | -7.58250 | 653 ft | 0 kts | 171° |
| 2026-05-04 19:49 | 33.37062 | -7.58255 | 655 ft | 8 kts | 187° |
| 2026-05-04 19:49 | 33.37013 | -7.58244 | 653 ft | 6 kts | 165° |
| 2026-05-04 19:50 | 33.36974 | -7.58232 | 653 ft | 5 kts | 165° |
| 2026-05-04 19:50 | 33.36967 | -7.58230 | 653 ft | 0 kts | 165° |
| 2026-05-04 19:50 | 33.36959 | -7.58229 | 653 ft | 4 kts | 183° |
| 2026-05-04 19:50 | 33.36934 | -7.58282 | 655 ft | 11 kts | 252° |
| 2026-05-04 19:51 | 33.36910 | -7.58386 | 655 ft | 13 kts | 255° |
| 2026-05-04 19:51 | 33.36866 | -7.58459 | 653 ft | 10 kts | 190° |
| 2026-05-04 19:51 | 33.36804 | -7.58445 | 653 ft | 8 kts | 167° |
| 2026-05-04 19:51 | 33.36752 | -7.58431 | 653 ft | 7 kts | 165° |
| 2026-05-04 19:52 | 33.36694 | -7.58407 | 655 ft | 12 kts | 160° |
| 2026-05-04 19:52 | 33.36595 | -7.58371 | 653 ft | 18 kts | 165° |
| 2026-05-04 19:52 | 33.36457 | -7.58328 | 653 ft | 23 kts | 164° |
| 2026-05-04 19:52 | 33.36282 | -7.58267 | 654 ft | 29 kts | 163° |
| 2026-05-04 19:53 | 33.36106 | -7.58206 | 652 ft | 27 kts | 163° |
| 2026-05-04 19:53 | 33.35923 | -7.58143 | 652 ft | 28 kts | 164° |
| 2026-05-04 19:53 | 33.35734 | -7.58082 | 653 ft | 29 kts | 165° |
| 2026-05-04 19:53 | 33.35541 | -7.58013 | 652 ft | 29 kts | 163° |
| 2026-05-04 19:54 | 33.35362 | -7.57949 | 652 ft | 19 kts | 163° |
| 2026-05-04 19:54 | 33.35259 | -7.58002 | 653 ft | 17 kts | 259° |
| 2026-05-04 19:54 | 33.35239 | -7.58065 | 653 ft | 0 kts | 251° |
| 2026-05-04 19:55 | 33.35238 | -7.58068 | 653 ft | 2 kts | 251° |
| 2026-05-04 19:55 | 33.35231 | -7.58096 | 653 ft | 6 kts | 252° |
| 2026-05-04 19:55 | 33.35216 | -7.58155 | 654 ft | 9 kts | 253° |
| 2026-05-04 19:55 | 33.35222 | -7.58239 | 654 ft | 12 kts | 303° |
| 2026-05-04 19:56 | 33.35311 | -7.58291 | 654 ft | 17 kts | 342° |
| 2026-05-04 19:56 | 33.35576 | -7.58385 | 648 ft | 74 kts | 344° |
| 2026-05-04 19:56 | 33.36279 | -7.58629 | 649 ft | 133 kts | 344° |
| 2026-05-04 19:56 | 33.37307 | -7.58995 | 815 ft | 161 kts | 342° |
| 2026-05-04 19:57 | 33.38329 | -7.59403 | 1530 ft | 151 kts | 341° |
| 2026-05-04 19:57 | 33.39293 | -7.59859 | 2142 ft | 147 kts | 336° |
| 2026-05-04 19:57 | 33.40253 | -7.60272 | 2589 ft | 148 kts | 340° |
| 2026-05-04 19:57 | 33.41269 | -7.60777 | 2779 ft | 169 kts | 332° |
| 2026-05-04 19:58 | 33.42362 | -7.61595 | 2895 ft | 200 kts | 322° |
| 2026-05-04 19:58 | 33.43447 | -7.62790 | 3213 ft | 225 kts | 312° |
| 2026-05-04 19:58 | 33.44416 | -7.64354 | 3768 ft | 240 kts | 304° |
| 2026-05-04 19:58 | 33.45332 | -7.66013 | 4548 ft | 244 kts | 304° |
| 2026-05-04 19:59 | 33.46280 | -7.67718 | 5364 ft | 247 kts | 304° |
| 2026-05-04 19:59 | 33.47243 | -7.69443 | 6177 ft | 251 kts | 303° |
| 2026-05-04 19:59 | 33.48219 | -7.71192 | 6976 ft | 254 kts | 303° |
| 2026-05-04 19:59 | 33.49207 | -7.72968 | 7767 ft | 258 kts | 303° |
| 2026-05-04 20:00 | 33.50205 | -7.74766 | 8554 ft | 261 kts | 303° |
| 2026-05-04 20:00 | 33.51215 | -7.76588 | 9325 ft | 264 kts | 303° |
| 2026-05-04 20:00 | 33.52238 | -7.78431 | 10065 ft | 267 kts | 302° |
| 2026-05-04 20:00 | 33.53269 | -7.80294 | 10809 ft | 269 kts | 302° |
| 2026-05-04 20:01 | 33.54309 | -7.82176 | 11548 ft | 272 kts | 302° |
| 2026-05-04 20:01 | 33.55360 | -7.84074 | 12282 ft | 274 kts | 302° |
| 2026-05-04 20:01 | 33.56421 | -7.85988 | 12992 ft | 276 kts | 302° |
| 2026-05-04 20:01 | 33.57720 | -7.87700 | 13647 ft | 282 kts | 322° |
| 2026-05-04 20:02 | 33.59497 | -7.88744 | 14273 ft | 292 kts | 343° |
| 2026-05-04 20:02 | 33.61597 | -7.88906 | 14422 ft | 318 kts | 7° |
| 2026-05-04 20:02 | 33.63837 | -7.88328 | 14556 ft | 341 kts | 11° |
| 2026-05-04 20:02 | 33.66186 | -7.87688 | 14698 ft | 360 kts | 11° |
| 2026-05-04 20:03 | 33.68669 | -7.87021 | 15130 ft | 369 kts | 11° |
| 2026-05-04 20:03 | 33.71199 | -7.86350 | 15716 ft | 374 kts | 11° |
| 2026-05-04 20:03 | 33.73752 | -7.85680 | 16316 ft | 378 kts | 10° |
| 2026-05-04 20:03 | 33.76336 | -7.85004 | 16908 ft | 381 kts | 10° |
| 2026-05-04 20:04 | 33.78939 | -7.84322 | 17482 ft | 384 kts | 10° |
| 2026-05-04 20:04 | 33.81560 | -7.83634 | 18043 ft | 387 kts | 10° |
| 2026-05-04 20:04 | 33.84201 | -7.82938 | 18587 ft | 390 kts | 10° |
| 2026-05-04 20:04 | 33.86868 | -7.82236 | 19126 ft | 394 kts | 10° |
| 2026-05-04 20:05 | 33.89560 | -7.81531 | 19673 ft | 397 kts | 10° |
| 2026-05-04 20:05 | 33.92271 | -7.80820 | 20207 ft | 401 kts | 10° |
| 2026-05-04 20:05 | 33.95011 | -7.80101 | 20727 ft | 404 kts | 9° |
| 2026-05-04 20:05 | 33.97766 | -7.79377 | 21238 ft | 407 kts | 9° |
| 2026-05-04 20:06 | 34.00545 | -7.78647 | 21737 ft | 410 kts | 9° |
| 2026-05-04 20:06 | 34.03342 | -7.77909 | 22216 ft | 413 kts | 9° |
| 2026-05-04 20:06 | 34.06164 | -7.77163 | 22686 ft | 417 kts | 9° |
| 2026-05-04 20:06 | 34.08971 | -7.76421 | 23136 ft | 419 kts | 9° |
| 2026-05-04 20:07 | 34.11832 | -7.75664 | 23573 ft | 422 kts | 9° |
| 2026-05-04 20:07 | 34.14712 | -7.74902 | 23990 ft | 425 kts | 9° |
| 2026-05-04 20:07 | 34.17624 | -7.74197 | 24395 ft | 426 kts | 5° |
| 2026-05-04 20:07 | 34.20576 | -7.73974 | 24782 ft | 425 kts | 355° |
| 2026-05-04 20:08 | 34.23533 | -7.74162 | 25172 ft | 427 kts | 353° |
| 2026-05-04 20:08 | 34.26508 | -7.74372 | 25560 ft | 429 kts | 353° |
| 2026-05-04 20:08 | 34.29491 | -7.74580 | 25924 ft | 431 kts | 353° |
| 2026-05-04 20:08 | 34.32492 | -7.74787 | 26281 ft | 433 kts | 353° |
| 2026-05-04 20:09 | 34.35514 | -7.74996 | 26631 ft | 435 kts | 353° |
| 2026-05-04 20:09 | 34.38541 | -7.75207 | 26976 ft | 437 kts | 353° |
| 2026-05-04 20:09 | 34.41584 | -7.75419 | 27314 ft | 439 kts | 353° |
| 2026-05-04 20:09 | 34.44637 | -7.75632 | 27648 ft | 441 kts | 353° |
| 2026-05-04 20:10 | 34.47707 | -7.75847 | 27950 ft | 443 kts | 353° |
| 2026-05-04 20:10 | 34.50795 | -7.76061 | 28259 ft | 445 kts | 353° |
| 2026-05-04 20:10 | 34.53853 | -7.76273 | 28555 ft | 446 kts | 353° |
| 2026-05-04 20:10 | 34.56963 | -7.76489 | 28853 ft | 448 kts | 353° |
| 2026-05-04 20:11 | 34.60078 | -7.76707 | 29144 ft | 449 kts | 353° |
| 2026-05-04 20:11 | 34.63212 | -7.76925 | 29419 ft | 451 kts | 353° |
| 2026-05-04 20:11 | 34.66358 | -7.77143 | 29683 ft | 453 kts | 353° |
| 2026-05-04 20:11 | 34.69514 | -7.77361 | 29935 ft | 454 kts | 353° |
| 2026-05-04 20:12 | 34.72674 | -7.77584 | 30183 ft | 456 kts | 353° |
| 2026-05-04 20:12 | 34.75845 | -7.77816 | 30421 ft | 457 kts | 352° |
| 2026-05-04 20:12 | 34.79027 | -7.78071 | 30643 ft | 459 kts | 352° |
| 2026-05-04 20:12 | 34.82218 | -7.78343 | 30852 ft | 460 kts | 352° |
| 2026-05-04 20:13 | 34.85418 | -7.78618 | 31083 ft | 461 kts | 352° |
| 2026-05-04 20:13 | 34.88617 | -7.78893 | 31387 ft | 460 kts | 352° |
| 2026-05-04 20:13 | 34.91808 | -7.79163 | 31683 ft | 459 kts | 352° |
| 2026-05-04 20:13 | 34.94951 | -7.79425 | 31968 ft | 458 kts | 352° |
| 2026-05-04 20:14 | 34.98142 | -7.79690 | 32261 ft | 458 kts | 352° |
| 2026-05-04 20:14 | 35.01318 | -7.79955 | 32545 ft | 457 kts | 352° |
| 2026-05-04 20:14 | 35.04487 | -7.80223 | 32815 ft | 457 kts | 352° |
| 2026-05-04 20:14 | 35.07652 | -7.80493 | 33077 ft | 456 kts | 352° |
| 2026-05-04 20:15 | 35.10821 | -7.80767 | 33345 ft | 456 kts | 352° |
| 2026-05-04 20:15 | 35.13980 | -7.81042 | 33615 ft | 455 kts | 352° |
| 2026-05-04 20:15 | 35.17134 | -7.81316 | 33875 ft | 455 kts | 352° |
| 2026-05-04 20:15 | 35.20288 | -7.81595 | 34128 ft | 454 kts | 352° |
| 2026-05-04 20:16 | 35.23440 | -7.81875 | 34384 ft | 454 kts | 352° |
| 2026-05-04 20:16 | 35.26588 | -7.82153 | 34643 ft | 453 kts | 351° |
| 2026-05-04 20:16 | 35.29730 | -7.82428 | 34884 ft | 452 kts | 351° |
| 2026-05-04 20:16 | 35.32872 | -7.82705 | 35118 ft | 453 kts | 351° |
| 2026-05-04 20:17 | 35.36015 | -7.82979 | 35362 ft | 452 kts | 351° |
| 2026-05-04 20:17 | 35.39144 | -7.83253 | 35586 ft | 451 kts | 351° |
| 2026-05-04 20:17 | 35.42277 | -7.83528 | 35792 ft | 451 kts | 351° |
| 2026-05-04 20:17 | 35.45405 | -7.83802 | 35993 ft | 450 kts | 351° |
| 2026-05-04 20:18 | 35.48525 | -7.84076 | 36064 ft | 449 kts | 351° |
| 2026-05-04 20:18 | 35.54744 | -7.84623 | 36072 ft | 447 kts | 351° |
| 2026-05-04 20:19 | 35.60912 | -7.85165 | 36073 ft | 447 kts | 351° |
| 2026-05-04 20:19 | 35.67110 | -7.85709 | 36073 ft | 447 kts | 351° |
| 2026-05-04 20:20 | 35.73310 | -7.86251 | 36073 ft | 446 kts | 351° |
| 2026-05-04 20:20 | 35.79504 | -7.86804 | 36073 ft | 446 kts | 351° |
| 2026-05-04 20:21 | 35.85705 | -7.87357 | 36074 ft | 446 kts | 351° |
| 2026-05-04 20:21 | 35.94965 | -7.88308 | 36068 ft | 441 kts | 344° |
| 2026-05-04 20:22 | 36.00679 | -7.90690 | 36066 ft | 430 kts | 329° |
| 2026-05-04 20:22 | 36.06094 | -7.93881 | 36058 ft | 431 kts | 330° |
| 2026-05-04 20:23 | 36.11512 | -7.97067 | 36059 ft | 431 kts | 330° |
| 2026-05-04 20:23 | 36.16935 | -8.00258 | 36065 ft | 432 kts | 330° |
| 2026-05-04 20:24 | 36.22349 | -8.03454 | 36067 ft | 431 kts | 330° |
| 2026-05-04 20:24 | 36.27771 | -8.06662 | 36067 ft | 431 kts | 330° |
| 2026-05-04 20:25 | 36.33155 | -8.09840 | 36068 ft | 431 kts | 330° |
| 2026-05-04 20:25 | 36.38572 | -8.13056 | 36071 ft | 431 kts | 330° |
| 2026-05-04 20:26 | 36.43986 | -8.16279 | 36068 ft | 431 kts | 330° |
| 2026-05-04 20:26 | 36.49405 | -8.19492 | 36070 ft | 431 kts | 330° |
| 2026-05-04 20:27 | 36.54814 | -8.22718 | 36072 ft | 431 kts | 329° |
| 2026-05-04 20:27 | 36.60214 | -8.25946 | 36073 ft | 431 kts | 330° |
| 2026-05-04 20:28 | 36.65615 | -8.29170 | 36072 ft | 430 kts | 329° |
| 2026-05-04 20:28 | 36.71020 | -8.32403 | 36071 ft | 431 kts | 330° |
| 2026-05-04 20:29 | 36.76405 | -8.35638 | 36071 ft | 431 kts | 330° |
| 2026-05-04 20:29 | 36.81808 | -8.38879 | 36075 ft | 431 kts | 330° |
| 2026-05-04 20:30 | 36.87212 | -8.42126 | 36077 ft | 431 kts | 330° |
| 2026-05-04 20:30 | 36.92614 | -8.45385 | 36079 ft | 430 kts | 329° |
| 2026-05-04 20:31 | 36.98002 | -8.48647 | 36079 ft | 431 kts | 330° |
| 2026-05-04 20:31 | 37.03370 | -8.51888 | 36071 ft | 431 kts | 330° |
| 2026-05-04 20:32 | 37.06100 | -8.53543 | 35824 ft | 440 kts | 330° |
| 2026-05-04 20:32 | 37.08864 | -8.55223 | 35579 ft | 442 kts | 330° |
| 2026-05-04 20:32 | 37.11635 | -8.56904 | 34875 ft | 444 kts | 330° |
| 2026-05-04 20:32 | 37.14403 | -8.58581 | 34287 ft | 439 kts | 330° |
| 2026-05-04 20:33 | 37.17165 | -8.60252 | 33454 ft | 440 kts | 330° |
| 2026-05-04 20:33 | 37.19907 | -8.61912 | 32922 ft | 434 kts | 330° |
| 2026-05-04 20:33 | 37.22614 | -8.63550 | 32365 ft | 430 kts | 330° |
| 2026-05-04 20:33 | 37.25294 | -8.65175 | 31825 ft | 425 kts | 330° |
| 2026-05-04 20:34 | 37.27085 | -8.66266 | 31466 ft | 422 kts | 330° |
| 2026-05-04 20:34 | 37.29713 | -8.67871 | 30925 ft | 418 kts | 330° |
| 2026-05-04 20:34 | 37.32283 | -8.69444 | 30411 ft | 414 kts | 330° |
| 2026-05-04 20:34 | 37.34913 | -8.71001 | 29878 ft | 412 kts | 333° |
| 2026-05-04 20:35 | 37.37515 | -8.72353 | 29362 ft | 409 kts | 333° |
| 2026-05-04 20:35 | 37.40097 | -8.73800 | 28833 ft | 404 kts | 331° |
| 2026-05-04 20:35 | 37.42614 | -8.75342 | 28309 ft | 400 kts | 329° |
| 2026-05-04 20:35 | 37.45083 | -8.76928 | 27778 ft | 397 kts | 329° |
| 2026-05-04 20:36 | 37.47526 | -8.78524 | 27258 ft | 394 kts | 329° |
| 2026-05-04 20:36 | 37.49959 | -8.80105 | 26730 ft | 392 kts | 329° |
| 2026-05-04 20:36 | 37.52378 | -8.81656 | 26206 ft | 389 kts | 329° |
| 2026-05-04 20:36 | 37.54792 | -8.83187 | 25678 ft | 388 kts | 330° |
| 2026-05-04 20:37 | 37.57201 | -8.84702 | 25153 ft | 386 kts | 330° |
| 2026-05-04 20:37 | 37.59613 | -8.86171 | 24623 ft | 385 kts | 334° |
| 2026-05-04 20:37 | 37.62144 | -8.87275 | 24100 ft | 385 kts | 339° |
| 2026-05-04 20:37 | 37.64692 | -8.88299 | 23574 ft | 383 kts | 339° |
| 2026-05-04 20:38 | 37.67226 | -8.89319 | 23054 ft | 382 kts | 339° |
| 2026-05-04 20:38 | 37.69758 | -8.90341 | 22519 ft | 381 kts | 339° |
| 2026-05-04 20:38 | 37.72277 | -8.91364 | 21999 ft | 380 kts | 339° |
| 2026-05-04 20:38 | 37.74788 | -8.92388 | 21468 ft | 378 kts | 339° |
| 2026-05-04 20:39 | 37.77294 | -8.93410 | 20943 ft | 377 kts | 339° |
| 2026-05-04 20:39 | 37.79805 | -8.94355 | 20410 ft | 378 kts | 346° |
| 2026-05-04 20:39 | 37.82440 | -8.94501 | 19882 ft | 383 kts | 4° |
| 2026-05-04 20:39 | 37.85044 | -8.93985 | 19366 ft | 383 kts | 6° |
| 2026-05-04 20:40 | 37.87668 | -8.93424 | 18839 ft | 381 kts | 7° |
| 2026-05-04 20:40 | 37.90277 | -8.92856 | 18311 ft | 380 kts | 7° |
| 2026-05-04 20:40 | 37.92882 | -8.92288 | 17787 ft | 379 kts | 7° |
| 2026-05-04 20:40 | 37.95475 | -8.91723 | 17260 ft | 377 kts | 7° |
| 2026-05-04 20:41 | 37.98055 | -8.91159 | 16743 ft | 376 kts | 7° |
| 2026-05-04 20:41 | 38.00636 | -8.90595 | 16209 ft | 375 kts | 7° |
| 2026-05-04 20:41 | 38.03202 | -8.90034 | 15684 ft | 374 kts | 7° |
| 2026-05-04 20:41 | 38.05759 | -8.89476 | 15155 ft | 372 kts | 7° |
| 2026-05-04 20:42 | 38.08309 | -8.88919 | 14633 ft | 371 kts | 7° |
| 2026-05-04 20:42 | 38.10846 | -8.88367 | 14103 ft | 369 kts | 7° |
| 2026-05-04 20:42 | 38.13374 | -8.87819 | 13578 ft | 367 kts | 7° |
| 2026-05-04 20:42 | 38.15887 | -8.87275 | 13048 ft | 365 kts | 7° |
| 2026-05-04 20:43 | 38.18354 | -8.86740 | 12532 ft | 363 kts | 8° |
| 2026-05-04 20:43 | 38.20832 | -8.86200 | 12004 ft | 360 kts | 8° |
| 2026-05-04 20:43 | 38.23296 | -8.85662 | 11513 ft | 357 kts | 8° |
| 2026-05-04 20:43 | 38.25723 | -8.85133 | 11069 ft | 352 kts | 8° |
| 2026-05-04 20:44 | 38.28119 | -8.84610 | 10611 ft | 347 kts | 8° |
| 2026-05-04 20:44 | 38.30481 | -8.84092 | 10160 ft | 342 kts | 8° |
| 2026-05-04 20:44 | 38.32812 | -8.83579 | 9709 ft | 337 kts | 8° |
| 2026-05-04 20:44 | 38.35110 | -8.83076 | 9248 ft | 333 kts | 9° |
| 2026-05-04 20:45 | 38.37379 | -8.82582 | 8807 ft | 329 kts | 9° |
| 2026-05-04 20:45 | 38.39614 | -8.82094 | 8430 ft | 323 kts | 9° |
| 2026-05-04 20:45 | 38.41810 | -8.81613 | 8049 ft | 317 kts | 9° |
| 2026-05-04 20:45 | 38.43964 | -8.81143 | 7673 ft | 312 kts | 9° |
| 2026-05-04 20:46 | 38.46087 | -8.80679 | 7297 ft | 307 kts | 9° |
| 2026-05-04 20:46 | 38.48163 | -8.80222 | 7097 ft | 297 kts | 8° |
| 2026-05-04 20:46 | 38.50134 | -8.79790 | 7104 ft | 279 kts | 8° |
| 2026-05-04 20:46 | 38.51989 | -8.79381 | 7107 ft | 261 kts | 8° |
| 2026-05-04 20:47 | 38.53720 | -8.78997 | 7108 ft | 245 kts | 8° |
| 2026-05-04 20:47 | 38.55367 | -8.78633 | 7108 ft | 238 kts | 8° |
| 2026-05-04 20:47 | 38.56996 | -8.78273 | 7109 ft | 237 kts | 8° |
| 2026-05-04 20:47 | 38.58621 | -8.77913 | 7109 ft | 237 kts | 8° |
| 2026-05-04 20:48 | 38.60355 | -8.77535 | 7114 ft | 266 kts | 8° |
| 2026-05-04 20:48 | 38.62211 | -8.77129 | 7112 ft | 274 kts | 9° |
| 2026-05-04 20:48 | 38.64081 | -8.76717 | 7109 ft | 275 kts | 8° |
| 2026-05-04 20:48 | 38.65965 | -8.76298 | 7108 ft | 275 kts | 8° |
| 2026-05-04 20:49 | 38.67850 | -8.75877 | 7109 ft | 275 kts | 8° |
| 2026-05-04 20:49 | 38.69735 | -8.75459 | 7110 ft | 276 kts | 8° |
| 2026-05-04 20:49 | 38.71704 | -8.75030 | 7112 ft | 293 kts | 8° |
| 2026-05-04 20:49 | 38.73726 | -8.74589 | 7117 ft | 296 kts | 9° |
| 2026-05-04 20:50 | 38.75760 | -8.74140 | 7119 ft | 297 kts | 9° |
| 2026-05-04 20:50 | 38.77802 | -8.73733 | 7114 ft | 296 kts | 2° |
| 2026-05-04 20:50 | 38.79850 | -8.73905 | 7113 ft | 295 kts | 352° |
| 2026-05-04 20:50 | 38.81888 | -8.74215 | 7110 ft | 295 kts | 352° |
| 2026-05-04 20:51 | 38.83928 | -8.74530 | 7108 ft | 295 kts | 352° |
| 2026-05-04 20:51 | 38.85970 | -8.74848 | 7109 ft | 295 kts | 352° |
| 2026-05-04 20:51 | 38.88011 | -8.75165 | 7107 ft | 295 kts | 352° |
| 2026-05-04 20:51 | 38.90053 | -8.75484 | 7109 ft | 295 kts | 352° |
| 2026-05-04 20:52 | 38.92061 | -8.75793 | 7109 ft | 295 kts | 352° |
| 2026-05-04 20:52 | 38.94099 | -8.76105 | 7107 ft | 295 kts | 352° |
| 2026-05-04 20:52 | 38.96141 | -8.76422 | 7109 ft | 296 kts | 352° |
| 2026-05-04 20:52 | 38.98150 | -8.76738 | 7105 ft | 283 kts | 352° |
| 2026-05-04 20:53 | 39.00070 | -8.77034 | 7108 ft | 275 kts | 352° |
| 2026-05-04 20:53 | 39.01971 | -8.77322 | 7106 ft | 274 kts | 352° |
| 2026-05-04 20:53 | 39.03858 | -8.77613 | 7108 ft | 273 kts | 352° |
| 2026-05-04 20:53 | 39.05752 | -8.77907 | 7112 ft | 274 kts | 352° |
| 2026-05-04 20:54 | 39.07645 | -8.78205 | 7127 ft | 274 kts | 352° |
| 2026-05-04 20:54 | 39.09534 | -8.78501 | 7126 ft | 274 kts | 352° |
| 2026-05-04 20:54 | 39.11425 | -8.78799 | 7128 ft | 274 kts | 352° |
| 2026-05-04 20:54 | 39.13284 | -8.79281 | 7130 ft | 273 kts | 340° |
| 2026-05-04 20:55 | 39.14994 | -8.80327 | 7127 ft | 272 kts | 326° |
| 2026-05-04 20:55 | 39.16442 | -8.81874 | 7130 ft | 271 kts | 312° |
| 2026-05-04 20:55 | 39.17574 | -8.83813 | 7131 ft | 271 kts | 304° |
| 2026-05-04 20:55 | 39.18633 | -8.85831 | 7128 ft | 271 kts | 304° |
| 2026-05-04 20:56 | 39.19692 | -8.87840 | 7129 ft | 271 kts | 304° |
| 2026-05-04 20:56 | 39.20731 | -8.89873 | 7124 ft | 271 kts | 298° |
| 2026-05-04 20:56 | 39.21362 | -8.92156 | 7130 ft | 271 kts | 282° |
| 2026-05-04 20:56 | 39.21746 | -8.94540 | 7130 ft | 272 kts | 282° |
| 2026-05-04 20:57 | 39.22125 | -8.96929 | 7128 ft | 272 kts | 282° |
| 2026-05-04 20:57 | 39.22341 | -8.99345 | 7122 ft | 272 kts | 266° |
| 2026-05-04 20:57 | 39.21875 | -9.01691 | 6731 ft | 280 kts | 243° |
| 2026-05-04 20:57 | 39.20618 | -9.03609 | 6154 ft | 286 kts | 217° |
| 2026-05-04 20:58 | 39.18800 | -9.04649 | 5573 ft | 291 kts | 191° |
| 2026-05-04 20:58 | 39.16765 | -9.04721 | 4990 ft | 295 kts | 178° |
| 2026-05-04 20:58 | 39.14705 | -9.04621 | 4407 ft | 297 kts | 178° |
| 2026-05-04 20:58 | 39.12643 | -9.04513 | 4054 ft | 292 kts | 179° |
| 2026-05-04 20:59 | 39.10669 | -9.04405 | 3990 ft | 275 kts | 179° |
| 2026-05-04 20:59 | 39.08829 | -9.04306 | 3997 ft | 256 kts | 179° |
| 2026-05-04 20:59 | 39.07107 | -9.04214 | 3987 ft | 239 kts | 179° |
| 2026-05-04 20:59 | 39.05475 | -9.04128 | 3994 ft | 233 kts | 179° |
| 2026-05-04 21:00 | 39.03867 | -9.04045 | 4011 ft | 225 kts | 179° |
| 2026-05-04 21:00 | 39.02354 | -9.03966 | 3999 ft | 211 kts | 179° |
| 2026-05-04 21:00 | 39.00918 | -9.03892 | 4040 ft | 196 kts | 179° |
| 2026-05-04 21:00 | 38.99620 | -9.03825 | 4004 ft | 179 kts | 179° |
| 2026-05-04 21:01 | 38.98445 | -9.03760 | 3990 ft | 160 kts | 179° |
| 2026-05-04 21:01 | 38.97350 | -9.03787 | 3994 ft | 156 kts | 188° |
| 2026-05-04 21:01 | 38.96286 | -9.04048 | 3905 ft | 156 kts | 199° |
| 2026-05-04 21:01 | 38.95265 | -9.04483 | 3719 ft | 154 kts | 202° |
| 2026-05-04 21:02 | 38.94270 | -9.04970 | 3521 ft | 153 kts | 204° |
| 2026-05-04 21:02 | 38.93297 | -9.05473 | 3323 ft | 152 kts | 205° |
| 2026-05-04 21:02 | 38.92314 | -9.05991 | 3113 ft | 152 kts | 205° |
| 2026-05-04 21:02 | 38.91338 | -9.06513 | 2911 ft | 151 kts | 205° |
| 2026-05-04 21:03 | 38.90369 | -9.07032 | 2725 ft | 151 kts | 205° |
| 2026-05-04 21:03 | 38.89403 | -9.07550 | 2508 ft | 149 kts | 205° |
| 2026-05-04 21:03 | 38.88444 | -9.08065 | 2316 ft | 149 kts | 204° |
| 2026-05-04 21:03 | 38.87482 | -9.08582 | 2114 ft | 149 kts | 204° |
| 2026-05-04 21:04 | 38.86530 | -9.09092 | 1917 ft | 148 kts | 204° |
| 2026-05-04 21:04 | 38.85579 | -9.09602 | 1722 ft | 148 kts | 204° |
| 2026-05-04 21:04 | 38.84636 | -9.10108 | 1528 ft | 147 kts | 204° |
| 2026-05-04 21:04 | 38.83697 | -9.10611 | 1331 ft | 146 kts | 203° |
| 2026-05-04 21:05 | 38.82765 | -9.11110 | 1140 ft | 146 kts | 204° |
| 2026-05-04 21:05 | 38.81830 | -9.11612 | 947 ft | 145 kts | 204° |
| 2026-05-04 21:05 | 38.80908 | -9.12106 | 755 ft | 144 kts | 204° |
| 2026-05-04 21:05 | 38.79980 | -9.12603 | 564 ft | 144 kts | 203° |
| 2026-05-04 21:06 | 38.79060 | -9.13095 | 374 ft | 143 kts | 203° |
| 2026-05-04 21:06 | 38.78190 | -9.13563 | 367 ft | 125 kts | 202° |
| 2026-05-04 21:06 | 38.77592 | -9.13875 | 364 ft | 53 kts | 201° |
| 2026-05-04 21:06 | 38.77386 | -9.13898 | 362 ft | 13 kts | 183° |
| 2026-05-04 21:07 | 38.77356 | -9.13897 | 359 ft | 2 kts | 178° |
| 2026-05-04 21:07 | 38.77339 | -9.13896 | 357 ft | 3 kts | 177° |
| 2026-05-04 21:07 | 38.77314 | -9.13894 | 357 ft | 4 kts | 177° |
| 2026-05-04 21:07 | 38.77281 | -9.13892 | 356 ft | 5 kts | 173° |
| 2026-05-04 21:08 | 38.77258 | -9.13877 | 358 ft | 0 kts | 151° |
| 2026-05-04 21:08 | 38.77250 | -9.13869 | 356 ft | 3 kts | 133° |
| 2026-05-04 21:08 | 38.77247 | -9.13801 | 360 ft | 9 kts | 81° |
| 2026-05-04 21:08 | 38.77260 | -9.13718 | 352 ft | 9 kts | 78° |
| 2026-05-04 21:09 | 38.77273 | -9.13636 | 357 ft | 10 kts | 78° |
| 2026-05-04 21:09 | 38.77288 | -9.13549 | 356 ft | 11 kts | 77° |
| 2026-05-04 21:09 | 38.77305 | -9.13449 | 349 ft | 13 kts | 77° |
| 2026-05-04 21:09 | 38.77327 | -9.13331 | 336 ft | 15 kts | 77° |
| 2026-05-04 21:10 | 38.77405 | -9.13273 | 336 ft | 15 kts | 352° |
| 2026-05-04 21:10 | 38.77486 | -9.13262 | 333 ft | 7 kts | 73° |
| 2026-05-04 21:10 | 38.77480 | -9.13224 | 337 ft | 3 kts | 92° |
| 2026-05-04 21:10 | 38.77483 | -9.13197 | 336 ft | 3 kts | 81° |
| 2026-05-04 21:11 | 38.77487 | -9.13177 | 336 ft | 2 kts | 78° |
| 2026-05-04 21:11 | 38.77489 | -9.13165 | 337 ft | 0 kts | 78° |